createdAt,value
2018-11-13T00:00:21.173Z,58.85
2018-11-13T00:02:50.943Z,58.45
2018-11-13T00:05:20.111Z,58.71
2018-11-13T00:07:49.048Z,58.62
2018-11-13T00:10:17.909Z,58.26
2018-11-13T00:12:46.773Z,58.56
2018-11-13T00:15:15.657Z,58.72
2018-11-13T00:17:44.470Z,58.57
2018-11-13T00:20:14.510Z,58.80
2018-11-13T00:22:43.898Z,59.20
2018-11-13T00:25:14.022Z,58.67
2018-11-13T00:27:43.410Z,58.86
2018-11-13T00:30:14.906Z,58.39
2018-11-13T00:32:44.091Z,59.44
2018-11-13T00:35:13.791Z,59.24
2018-11-13T00:37:42.756Z,59.13
2018-11-13T00:40:12.452Z,58.75
2018-11-13T00:42:42.308Z,58.73
2018-11-13T00:45:11.150Z,58.29
2018-11-13T00:47:40.053Z,58.55
2018-11-13T00:50:11.234Z,58.48
2018-11-13T00:52:40.454Z,58.71
2018-11-13T00:55:09.409Z,58.57
2018-11-13T00:57:38.513Z,58.72
2018-11-13T01:00:09.885Z,59.46
2018-11-13T01:02:38.731Z,59.34
2018-11-13T01:05:09.451Z,59.64
2018-11-13T01:07:38.360Z,59.11
2018-11-13T01:10:08.495Z,59.81
2018-11-13T01:12:37.375Z,59.37
2018-11-13T01:15:07.059Z,59.86
2018-11-13T01:17:35.789Z,59.66
2018-11-13T01:20:04.790Z,60.09
2018-11-13T01:22:34.088Z,59.02
2018-11-13T01:25:02.569Z,59.11
2018-11-13T01:27:31.481Z,58.70
2018-11-13T01:30:00.317Z,58.72
2018-11-13T01:32:29.957Z,58.69
2018-11-13T01:34:58.842Z,58.54
2018-11-13T01:37:27.660Z,59.14
2018-11-13T01:39:56.522Z,59.28
2018-11-13T01:42:25.442Z,59.25
2018-11-13T01:44:54.274Z,59.16
2018-11-13T01:47:23.068Z,59.21
2018-11-13T01:49:52.030Z,59.28
2018-11-13T01:52:20.848Z,59.33
2018-11-13T01:54:49.702Z,59.54
2018-11-13T01:57:18.554Z,59.25
2018-11-13T01:59:47.417Z,58.98
2018-11-13T02:02:16.238Z,58.67
2018-11-13T02:04:45.056Z,58.89
2018-11-13T02:07:14.011Z,58.59
2018-11-13T02:09:42.920Z,59.00
2018-11-13T02:12:11.856Z,58.98
2018-11-13T02:14:40.697Z,59.29
2018-11-13T02:17:09.622Z,58.70
2018-11-13T02:19:38.529Z,59.19
2018-11-13T02:22:07.380Z,58.85
2018-11-13T02:24:36.236Z,58.08
2018-11-13T02:27:05.182Z,58.06
2018-11-13T02:29:34.126Z,58.72
2018-11-13T02:32:02.992Z,58.31
2018-11-13T02:34:31.849Z,59.46
2018-11-13T02:37:00.673Z,59.56
2018-11-13T02:39:29.554Z,59.40
2018-11-13T02:41:58.439Z,59.81
2018-11-13T02:44:27.259Z,58.95
2018-11-13T02:46:56.242Z,59.03
2018-11-13T02:49:28.147Z,59.20
2018-11-13T02:51:57.271Z,59.53
2018-11-13T02:54:26.101Z,59.61
2018-11-13T02:56:54.956Z,59.40
2018-11-13T02:59:23.795Z,59.55
2018-11-13T03:01:52.644Z,59.05
2018-11-13T03:04:21.469Z,59.30
2018-11-13T03:06:50.495Z,59.25
2018-11-13T03:09:19.450Z,59.62
2018-11-13T03:11:48.431Z,58.96
2018-11-13T03:14:17.256Z,81.33
2018-11-13T03:16:46.123Z,73.90
2018-11-13T03:19:15.011Z,57.37
2018-11-13T03:21:43.997Z,55.66
2018-11-13T03:24:12.992Z,55.84
2018-11-13T03:26:42.001Z,55.65
2018-11-13T03:29:10.807Z,55.63
2018-11-13T03:31:39.743Z,56.04
2018-11-13T03:34:08.515Z,56.60
2018-11-13T03:36:37.655Z,56.66
2018-11-13T03:39:08.497Z,57.52
2018-11-13T03:41:37.838Z,57.46
2018-11-13T03:44:07.731Z,58.22
2018-11-13T03:46:36.619Z,58.64
2018-11-13T03:49:06.075Z,58.90
2018-11-13T03:51:34.941Z,59.10
2018-11-13T03:54:03.852Z,58.78
2018-11-13T03:56:32.749Z,59.08
2018-11-13T03:59:01.585Z,58.75
2018-11-13T04:01:30.484Z,58.80
2018-11-13T04:03:59.463Z,59.39
2018-11-13T04:06:28.322Z,59.18
2018-11-13T04:08:57.155Z,59.45
2018-11-13T04:11:26.063Z,59.66
2018-11-13T04:14:01.108Z,59.37
2018-11-13T04:16:30.010Z,59.24
2018-11-13T04:18:58.869Z,59.10
2018-11-13T04:21:27.702Z,59.37
2018-11-13T04:23:56.554Z,59.59
2018-11-13T04:26:25.647Z,59.99
2018-11-13T04:28:54.497Z,59.83
2018-11-13T04:31:23.336Z,59.35
2018-11-13T04:33:52.443Z,59.62
2018-11-13T04:36:21.307Z,65.30
2018-11-13T04:38:50.258Z,68.73
2018-11-13T04:41:19.193Z,60.31
2018-11-13T04:43:48.103Z,60.25
2018-11-13T04:46:17.747Z,59.93
2018-11-13T04:48:46.717Z,60.70
2018-11-13T04:51:15.554Z,60.40
2018-11-13T04:53:44.467Z,60.59
2018-11-13T04:56:13.610Z,60.73
2018-11-13T04:58:42.469Z,60.30
2018-11-13T05:01:11.295Z,60.29
2018-11-13T05:03:40.114Z,60.21
2018-11-13T05:06:09.148Z,60.25
2018-11-13T05:08:37.995Z,59.81
2018-11-13T05:11:07.079Z,59.38
2018-11-13T05:13:36.009Z,59.29
2018-11-13T05:16:05.257Z,59.23
2018-11-13T05:18:34.141Z,58.78
2018-11-13T05:21:02.996Z,59.36
2018-11-13T05:23:31.797Z,59.52
2018-11-13T05:26:00.625Z,59.17
2018-11-13T05:28:29.460Z,59.30
2018-11-13T05:31:04.504Z,59.32
2018-11-13T05:33:33.329Z,59.11
2018-11-13T05:36:02.202Z,59.93
2018-11-13T05:38:31.035Z,59.60
2018-11-13T05:40:59.865Z,59.69
2018-11-13T05:43:28.943Z,59.05
2018-11-13T05:45:57.993Z,59.70
2018-11-13T05:48:26.861Z,59.58
2018-11-13T05:50:55.794Z,59.81
2018-11-13T05:53:24.619Z,59.58
2018-11-13T05:55:53.444Z,60.26
2018-11-13T05:58:22.324Z,59.62
2018-11-13T06:00:51.149Z,60.03
2018-11-13T06:03:19.993Z,60.17
2018-11-13T06:05:48.846Z,59.96
2018-11-13T06:08:18.605Z,59.49
2018-11-13T06:10:48.182Z,59.82
2018-11-13T06:13:17.021Z,60.16
2018-11-13T06:15:45.956Z,59.44
2018-11-13T06:18:14.829Z,60.14
2018-11-13T06:20:43.651Z,59.99
2018-11-13T06:23:12.561Z,59.87
2018-11-13T06:25:41.329Z,60.19
2018-11-13T06:28:10.274Z,59.96
2018-11-13T06:30:39.151Z,59.72
2018-11-13T06:33:08.033Z,60.12
2018-11-13T06:35:36.912Z,60.09
2018-11-13T06:38:05.890Z,60.21
2018-11-13T06:40:34.773Z,60.91
2018-11-13T06:43:03.636Z,61.46
2018-11-13T06:45:32.465Z,61.63
2018-11-13T06:48:01.292Z,62.16
2018-11-13T06:50:30.164Z,61.64
2018-11-13T06:52:59.025Z,61.56
2018-11-13T06:55:35.034Z,61.50
2018-11-13T06:58:04.505Z,61.15
2018-11-13T07:00:33.409Z,61.83
2018-11-13T07:03:02.409Z,61.78
2018-11-13T07:05:31.230Z,61.46
2018-11-13T07:08:00.169Z,61.74
2018-11-13T07:10:29.774Z,62.31
2018-11-13T07:12:59.164Z,62.36
2018-11-13T07:15:29.288Z,61.94
2018-11-13T07:18:02.390Z,62.72
2018-11-13T07:20:32.569Z,62.81
2018-11-13T07:23:01.492Z,62.36
2018-11-13T07:25:30.429Z,62.38
2018-11-13T07:27:59.367Z,62.41
2018-11-13T07:30:28.675Z,62.08
2018-11-13T07:32:57.508Z,62.03
2018-11-13T07:35:26.366Z,62.02
2018-11-13T07:37:57.407Z,62.27
2018-11-13T07:40:26.453Z,62.38
2018-11-13T07:42:55.489Z,61.72
2018-11-13T07:45:24.386Z,61.56
2018-11-13T07:47:53.730Z,61.70
2018-11-13T07:50:22.544Z,62.09
2018-11-13T07:52:51.394Z,62.54
2018-11-13T07:55:20.236Z,61.17
2018-11-13T07:57:49.074Z,61.61
2018-11-13T08:00:20.000Z,60.82
2018-11-13T08:02:50.221Z,60.55
2018-11-13T08:05:19.113Z,61.04
2018-11-13T08:07:47.956Z,60.57
2018-11-13T08:10:16.944Z,60.19
2018-11-13T08:12:46.197Z,60.55
2018-11-13T08:15:16.309Z,60.15
2018-11-13T08:17:45.153Z,60.48
2018-11-13T08:20:15.168Z,60.19
2018-11-13T08:22:44.524Z,60.13
2018-11-13T08:25:13.522Z,59.94
2018-11-13T08:27:45.774Z,60.01
2018-11-13T08:30:16.017Z,59.77
2018-11-13T08:32:45.616Z,59.38
2018-11-13T08:35:14.722Z,59.38
2018-11-13T08:37:43.682Z,59.30
2018-11-13T08:40:14.125Z,58.95
2018-11-13T08:42:43.683Z,59.51
2018-11-13T08:45:13.527Z,59.21
2018-11-13T08:47:42.737Z,59.18
2018-11-13T08:50:12.156Z,58.93
2018-11-13T08:52:41.745Z,58.85
2018-11-13T08:55:11.169Z,58.80
2018-11-13T08:57:40.090Z,58.89
2018-11-13T09:00:11.018Z,59.03
2018-11-13T09:02:40.274Z,59.10
2018-11-13T09:05:09.797Z,59.30
2018-11-13T09:07:38.762Z,59.40
2018-11-13T09:10:10.360Z,59.07
2018-11-13T09:12:39.742Z,59.12
2018-11-13T09:15:10.700Z,60.14
2018-11-13T09:17:39.601Z,59.69
2018-11-13T09:20:10.664Z,60.12
2018-11-13T09:22:39.557Z,61.11
2018-11-13T09:25:10.633Z,60.82
2018-11-13T09:27:40.477Z,60.72
2018-11-13T09:30:11.973Z,60.33
2018-11-13T09:32:41.352Z,60.75
2018-11-13T09:35:11.579Z,61.48
2018-11-13T09:37:40.332Z,61.18
2018-11-13T09:40:11.863Z,61.27
2018-11-13T09:42:41.382Z,61.52
2018-11-13T09:45:10.988Z,61.51
2018-11-13T09:47:40.255Z,61.33
2018-11-13T09:50:13.572Z,62.70
2018-11-13T09:52:43.631Z,62.33
2018-11-13T09:55:13.943Z,62.68
2018-11-13T09:57:42.781Z,62.21
2018-11-13T10:00:17.075Z,62.63
2018-11-13T10:02:54.081Z,61.93
2018-11-13T10:05:23.056Z,61.62
2018-11-13T10:07:52.407Z,62.11
2018-11-13T10:10:21.293Z,61.89
2018-11-13T10:12:50.243Z,61.51
2018-11-13T10:15:23.414Z,61.57
2018-11-13T10:17:52.379Z,61.48
2018-11-13T10:20:21.193Z,61.61
2018-11-13T10:22:51.504Z,61.40
2018-11-13T10:25:20.391Z,60.84
2018-11-13T10:27:49.374Z,60.48
2018-11-13T10:30:19.386Z,60.71
2018-11-13T10:32:48.788Z,60.56
2018-11-13T10:35:19.019Z,60.45
2018-11-13T10:37:47.947Z,60.27
2018-11-13T10:40:18.177Z,60.30
2018-11-13T10:42:47.055Z,59.89
2018-11-13T10:45:18.297Z,60.08
2018-11-13T10:47:47.115Z,59.97
2018-11-13T10:50:17.734Z,60.04
2018-11-13T10:52:46.667Z,60.22
2018-11-13T10:55:15.486Z,60.14
2018-11-13T10:57:44.634Z,60.06
2018-11-13T11:00:20.546Z,60.18
2018-11-13T11:02:54.728Z,60.08
2018-11-13T11:05:25.491Z,59.51
2018-11-13T11:07:54.631Z,59.64
2018-11-13T11:10:23.468Z,59.07
2018-11-13T11:12:52.376Z,58.96
2018-11-13T11:15:21.232Z,59.22
2018-11-13T11:17:50.090Z,58.52
2018-11-13T11:20:18.957Z,59.11
2018-11-13T11:22:47.952Z,58.29
2018-11-13T11:25:16.736Z,58.02
2018-11-13T11:27:45.580Z,57.54
2018-11-13T11:30:15.384Z,57.46
2018-11-13T11:32:44.284Z,57.23
2018-11-13T11:35:13.181Z,57.15
2018-11-13T11:37:42.348Z,57.50
2018-11-13T11:40:12.183Z,57.54
2018-11-13T11:42:41.052Z,56.81
2018-11-13T11:45:12.154Z,56.60
2018-11-13T11:47:41.084Z,57.18
2018-11-13T11:50:11.080Z,56.49
2018-11-13T11:52:40.035Z,55.67
2018-11-13T11:55:09.497Z,55.39
2018-11-13T11:57:38.348Z,55.76
2018-11-13T12:00:10.336Z,55.26
2018-11-13T12:02:39.206Z,55.51
2018-11-13T12:05:08.713Z,55.11
2018-11-13T12:07:37.922Z,54.97
2018-11-13T12:10:08.801Z,54.83
2018-11-13T12:12:37.653Z,55.04
2018-11-13T12:15:08.213Z,54.88
2018-11-13T12:17:37.124Z,54.97
2018-11-13T12:20:06.860Z,55.37
2018-11-13T12:22:35.718Z,55.37
2018-11-13T12:25:04.771Z,55.23
2018-11-13T12:27:33.606Z,54.99
2018-11-13T12:30:02.449Z,55.77
2018-11-13T12:32:31.324Z,56.07
2018-11-13T12:35:00.182Z,56.17
2018-11-13T12:37:29.004Z,55.75
2018-11-13T12:39:57.920Z,55.42
2018-11-13T12:42:26.779Z,54.97
2018-11-13T12:44:55.619Z,55.00
2018-11-13T12:47:24.532Z,54.85
2018-11-13T12:49:53.393Z,54.39
2018-11-13T12:52:23.973Z,54.85
2018-11-13T12:54:51.108Z,53.75
2018-11-13T12:57:19.920Z,54.28
2018-11-13T12:59:48.867Z,54.05
2018-11-13T13:02:17.746Z,54.28
2018-11-13T13:04:46.574Z,53.66
2018-11-13T13:07:15.446Z,53.20
2018-11-13T13:09:44.270Z,53.29
2018-11-13T13:12:13.186Z,52.72
2018-11-13T13:14:42.089Z,52.94
2018-11-13T13:17:11.037Z,52.82
2018-11-13T13:19:39.878Z,53.11
2018-11-13T13:22:08.784Z,52.97
2018-11-13T13:24:37.606Z,52.92
2018-11-13T13:27:06.519Z,52.85
2018-11-13T13:29:35.448Z,52.26
2018-11-13T13:32:04.310Z,52.89
2018-11-13T13:34:33.189Z,52.57
2018-11-13T13:37:02.029Z,52.84
2018-11-13T13:39:30.877Z,52.62
2018-11-13T13:41:59.708Z,52.37
2018-11-13T13:44:28.569Z,52.58
2018-11-13T13:46:57.386Z,52.80
2018-11-13T13:49:26.249Z,52.58
2018-11-13T13:51:55.090Z,52.44
2018-11-13T13:54:24.042Z,51.80
2018-11-13T13:56:52.882Z,52.13
2018-11-13T13:59:21.842Z,52.17
2018-11-13T14:01:50.703Z,51.72
2018-11-13T14:04:19.574Z,51.85
2018-11-13T14:06:48.415Z,51.80
2018-11-13T14:09:17.306Z,51.98
2018-11-13T14:11:46.127Z,51.89
2018-11-13T14:14:14.973Z,51.95
2018-11-13T14:16:43.789Z,51.13
2018-11-13T14:19:12.718Z,51.66
2018-11-13T14:21:41.573Z,52.11
2018-11-13T14:24:10.411Z,51.51
2018-11-13T14:26:39.297Z,52.25
2018-11-13T14:29:08.319Z,52.58
2018-11-13T14:31:37.120Z,52.21
2018-11-13T14:34:06.199Z,53.16
2018-11-13T14:36:35.074Z,52.92
2018-11-13T14:39:04.719Z,53.07
2018-11-13T14:41:33.648Z,52.83
2018-11-13T14:44:02.478Z,52.99
2018-11-13T14:46:31.417Z,52.50
2018-11-13T14:49:00.222Z,53.73
2018-11-13T14:51:29.042Z,52.93
2018-11-13T14:53:57.909Z,52.77
2018-11-13T14:56:26.777Z,52.16
2018-11-13T14:58:55.673Z,52.89
2018-11-13T15:01:24.555Z,53.36
2018-11-13T15:03:53.476Z,52.77
2018-11-13T15:06:22.453Z,53.40
2018-11-13T15:08:51.335Z,53.46
2018-11-13T15:14:18.256Z,53.89
2018-11-13T15:16:47.108Z,52.92
2018-11-13T15:19:15.948Z,53.61
2018-11-13T15:21:44.852Z,53.51
2018-11-13T15:24:13.769Z,53.82
2018-11-13T15:26:42.664Z,54.21
2018-11-13T15:29:11.533Z,53.62
2018-11-13T15:31:40.452Z,54.39
2018-11-13T15:34:09.307Z,54.11
2018-11-13T15:36:38.271Z,54.50
2018-11-13T15:39:10.767Z,54.66
2018-11-13T15:41:39.616Z,53.63
2018-11-13T15:44:08.605Z,54.83
2018-11-13T15:46:37.478Z,54.62
2018-11-13T15:49:06.315Z,54.68
2018-11-13T15:51:35.341Z,55.17
2018-11-13T15:54:04.108Z,54.62
2018-11-13T15:56:32.962Z,54.87
2018-11-13T15:59:01.812Z,54.86
2018-11-13T16:01:30.720Z,55.05
2018-11-13T16:03:59.546Z,55.50
2018-11-13T16:06:28.588Z,54.95
2018-11-13T16:08:57.396Z,55.49
2018-11-13T16:11:26.347Z,55.00
2018-11-13T16:13:55.240Z,54.87
2018-11-13T16:16:24.146Z,55.34
2018-11-13T16:18:52.977Z,55.31
2018-11-13T16:21:21.896Z,55.00
2018-11-13T16:23:51.598Z,55.30
2018-11-13T16:26:20.447Z,55.65
2018-11-13T16:28:49.548Z,55.99
2018-11-13T16:31:18.465Z,56.27
2018-11-13T16:33:47.347Z,55.74
2018-11-13T16:36:16.282Z,56.63
2018-11-13T16:38:45.749Z,56.61
2018-11-13T16:41:14.708Z,56.22
2018-11-13T16:43:43.518Z,56.42
2018-11-13T16:46:12.486Z,56.25
2018-11-13T16:48:41.349Z,56.74
2018-11-13T16:51:10.293Z,56.91
2018-11-13T16:53:44.430Z,57.03
2018-11-13T16:56:13.258Z,56.93
2018-11-13T16:58:42.189Z,57.36
2018-11-13T17:01:11.272Z,56.84
2018-11-13T17:03:40.177Z,57.25
2018-11-13T17:06:09.134Z,57.16
2018-11-13T17:08:38.019Z,56.79
2018-11-13T17:11:06.897Z,57.33
2018-11-13T17:13:35.804Z,57.31
2018-11-13T17:16:04.686Z,56.92
2018-11-13T17:18:33.553Z,57.84
2018-11-13T17:21:02.426Z,57.92
2018-11-13T17:23:31.319Z,57.40
2018-11-13T17:26:00.225Z,57.99
2018-11-13T17:28:29.114Z,58.18
2018-11-13T17:30:58.038Z,57.68
2018-11-13T17:33:26.879Z,57.79
2018-11-13T17:35:55.739Z,58.59
2018-11-13T17:38:24.602Z,58.96
2018-11-13T17:40:53.455Z,59.06
2018-11-13T17:43:22.330Z,58.79
2018-11-13T17:45:51.169Z,59.00
2018-11-13T17:48:20.056Z,59.06
2018-11-13T17:50:48.890Z,59.55
2018-11-13T17:53:17.804Z,58.84
2018-11-13T17:55:46.681Z,58.92
2018-11-13T17:58:15.898Z,59.32
2018-11-13T18:00:46.309Z,59.16
2018-11-13T18:03:16.039Z,59.03
2018-11-13T18:05:45.561Z,59.69
2018-11-13T18:08:14.581Z,60.08
2018-11-13T18:10:44.805Z,59.60
2018-11-13T18:13:14.401Z,60.07
2018-11-13T18:15:43.280Z,60.34
2018-11-13T18:18:12.758Z,60.95
2018-11-13T18:20:42.301Z,60.93
2018-11-13T18:23:11.377Z,61.36
2018-11-13T18:25:40.374Z,61.71
2018-11-13T18:28:09.487Z,61.90
2018-11-13T18:30:39.074Z,61.85
2018-11-13T18:33:08.568Z,61.69
2018-11-13T18:35:38.475Z,61.94
2018-11-13T18:38:09.514Z,62.50
2018-11-13T18:40:38.441Z,62.21
2018-11-13T18:43:07.654Z,62.46
2018-11-13T18:45:38.240Z,62.70
2018-11-13T18:48:07.120Z,62.09
2018-11-13T18:50:37.569Z,62.73
2018-11-13T18:53:06.650Z,62.49
2018-11-13T18:55:35.525Z,62.76
2018-11-13T18:58:04.808Z,63.21
2018-11-13T19:00:35.074Z,62.89
2018-11-13T19:03:05.530Z,62.49
2018-11-13T19:05:34.550Z,62.80
2018-11-13T19:08:03.462Z,62.58
2018-11-13T19:10:38.008Z,62.29
2018-11-13T19:13:09.189Z,61.98
2018-11-13T19:15:39.545Z,61.83
2018-11-13T19:18:09.140Z,61.32
2018-11-13T19:20:38.059Z,60.84
2018-11-13T19:23:07.144Z,60.66
2018-11-13T19:25:36.606Z,59.75
2018-11-13T19:28:05.652Z,58.85
2018-11-13T19:30:34.544Z,56.94
2018-11-13T19:33:03.459Z,57.20
2018-11-13T19:35:32.481Z,56.46
2018-11-13T19:38:01.263Z,55.77
2018-11-13T19:40:31.807Z,56.35
2018-11-13T19:43:02.133Z,57.35
2018-11-13T19:45:30.979Z,56.79
2018-11-13T19:48:00.026Z,57.06
2018-11-13T19:50:30.191Z,58.44
2018-11-13T19:53:01.663Z,59.37
2018-11-13T19:55:31.269Z,59.72
2018-11-13T19:58:00.243Z,59.61
2018-11-13T20:00:34.471Z,58.38
2018-11-13T20:03:04.683Z,57.51
2018-11-13T20:05:33.844Z,57.01
2018-11-13T20:08:02.842Z,56.74
2018-11-13T20:10:33.256Z,56.52
2018-11-13T20:13:03.214Z,56.43
2018-11-13T20:15:33.051Z,56.42
2018-11-13T20:18:01.986Z,56.93
2018-11-13T20:20:31.950Z,57.19
2018-11-13T20:23:02.049Z,57.70
2018-11-13T20:25:32.168Z,57.00
2018-11-13T20:28:01.180Z,57.58
2018-11-13T20:30:31.748Z,57.80
2018-11-13T20:33:00.627Z,58.27
2018-11-13T20:35:29.578Z,58.13
2018-11-13T20:37:59.073Z,58.56
2018-11-13T20:40:29.348Z,58.44
2018-11-13T20:42:59.463Z,58.62
2018-11-13T20:45:28.342Z,58.07
2018-11-13T20:47:57.315Z,58.59
2018-11-13T20:50:28.498Z,58.36
2018-11-13T20:52:57.474Z,58.34
2018-11-13T20:55:26.467Z,58.09
2018-11-13T20:57:55.341Z,57.92
2018-11-13T21:00:38.553Z,57.20
2018-11-13T21:03:07.869Z,57.21
2018-11-13T21:05:36.736Z,56.96
2018-11-13T21:08:05.737Z,56.89
2018-11-13T21:10:36.322Z,56.92
2018-11-13T21:13:05.538Z,56.83
2018-11-13T21:15:34.380Z,57.63
2018-11-13T21:18:03.263Z,57.44
2018-11-13T21:20:32.104Z,58.15
2018-11-13T21:23:01.065Z,58.38
2018-11-13T21:25:29.919Z,59.39
2018-11-13T21:28:00.714Z,59.28
2018-11-13T21:30:29.668Z,59.10
2018-11-13T21:32:58.548Z,59.29
2018-11-13T21:35:27.383Z,59.46
2018-11-13T21:37:57.264Z,59.00
2018-11-13T21:40:27.199Z,59.11
2018-11-13T21:42:56.672Z,58.42
2018-11-13T21:45:26.510Z,58.16
2018-11-13T21:47:55.389Z,58.52
2018-11-13T21:50:26.679Z,58.06
2018-11-13T21:52:55.557Z,57.46
2018-11-13T21:55:25.625Z,57.42
2018-11-13T21:57:54.458Z,57.48
2018-11-13T22:00:27.428Z,56.96
2018-11-13T22:03:00.517Z,57.46
2018-11-13T22:05:30.143Z,57.65
2018-11-13T22:07:59.056Z,57.87
2018-11-13T22:10:27.980Z,57.98
2018-11-13T22:12:56.884Z,58.15
2018-11-13T22:15:26.988Z,58.48
2018-11-13T22:17:55.927Z,59.47
2018-11-13T22:20:25.442Z,59.38
2018-11-13T22:22:55.581Z,59.10
2018-11-13T22:25:25.366Z,59.85
2018-11-13T22:27:55.674Z,60.31
2018-11-13T22:30:28.913Z,60.42
2018-11-13T22:32:57.772Z,60.62
2018-11-13T22:35:26.637Z,61.41
2018-11-13T22:40:25.595Z,61.95
2018-11-13T22:42:54.631Z,59.80
2018-11-13T22:45:25.617Z,59.84
2018-11-13T22:47:54.820Z,59.39
2018-11-13T22:50:26.040Z,59.00
2018-11-13T22:52:55.371Z,58.78
2018-11-13T22:55:24.298Z,58.90
2018-11-13T22:57:54.784Z,59.00
2018-11-13T23:00:30.158Z,59.03
2018-11-13T23:02:59.034Z,59.26
2018-11-13T23:05:27.861Z,59.32
2018-11-13T23:07:56.734Z,59.03
2018-11-13T23:10:25.578Z,59.59
2018-11-13T23:12:54.409Z,59.70
2018-11-13T23:15:23.331Z,59.75
2018-11-13T23:17:52.161Z,59.37
2018-11-13T23:20:21.708Z,59.98
2018-11-13T23:22:50.606Z,59.79
2018-11-13T23:25:20.292Z,60.66
2018-11-13T23:27:50.370Z,60.40
2018-11-13T23:30:21.617Z,59.63
2018-11-13T23:32:50.772Z,60.79
2018-11-13T23:35:19.919Z,60.67
2018-11-13T23:37:50.164Z,60.26
2018-11-13T23:40:20.299Z,59.48
2018-11-13T23:42:49.554Z,59.45
2018-11-13T23:45:19.351Z,59.32
2018-11-13T23:47:48.694Z,58.74
2018-11-13T23:50:17.627Z,59.03
2018-11-13T23:52:47.378Z,58.76
2018-11-13T23:55:16.611Z,58.92
2018-11-13T23:57:45.990Z,58.89
